createdAt,value
2023-04-15T00:00:59.050Z,995.72
2023-04-15T00:01:59.069Z,995.71
2023-04-15T00:02:59.263Z,995.71
2023-04-15T00:03:59.093Z,995.72
2023-04-15T00:04:59.029Z,995.73
2023-04-15T00:05:58.965Z,995.74
2023-04-15T00:06:59.160Z,995.75
2023-04-15T00:07:58.966Z,995.75
2023-04-15T00:08:59.295Z,995.75
2023-04-15T00:09:58.913Z,995.74
2023-04-15T00:10:58.932Z,995.73
2023-04-15T00:11:58.890Z,995.71
2023-04-15T00:12:58.946Z,995.70
2023-04-15T00:13:58.871Z,995.69
2023-04-15T00:14:58.895Z,995.69
2023-04-15T00:15:58.867Z,995.70
2023-04-15T00:16:59.001Z,995.70
2023-04-15T00:17:58.870Z,995.69
2023-04-15T00:18:59.223Z,995.69
2023-04-15T00:19:58.812Z,995.69
2023-04-15T00:20:58.829Z,995.69
2023-04-15T00:21:58.828Z,995.69
2023-04-15T00:22:58.794Z,995.68
2023-04-15T00:23:58.771Z,995.67
2023-04-15T00:24:58.826Z,995.66
2023-04-15T00:25:58.761Z,995.65
2023-04-15T00:26:58.772Z,995.64
2023-04-15T00:27:58.737Z,995.63
2023-04-15T00:28:59.011Z,995.62
2023-04-15T00:29:58.706Z,995.61
2023-04-15T00:30:58.774Z,995.60
2023-04-15T00:31:58.701Z,995.59
2023-04-15T00:32:58.718Z,995.59
2023-04-15T00:33:58.664Z,995.59
2023-04-15T00:34:58.664Z,995.58
2023-04-15T00:35:58.669Z,995.58
2023-04-15T00:36:59.434Z,995.57
2023-04-15T00:37:58.648Z,995.56
2023-04-15T00:38:59.083Z,995.55
2023-04-15T00:39:58.636Z,995.53
2023-04-15T00:40:58.630Z,995.52
2023-04-15T00:41:58.585Z,995.51
2023-04-15T00:42:58.589Z,995.50
2023-04-15T00:43:58.583Z,995.50
2023-04-15T00:44:58.569Z,995.50
2023-04-15T00:45:58.583Z,995.50
2023-04-15T00:46:58.559Z,995.49
2023-04-15T00:47:58.549Z,995.48
2023-04-15T00:48:58.791Z,995.47
2023-04-15T00:49:58.575Z,995.46
2023-04-15T00:50:58.510Z,995.45
2023-04-15T00:51:58.544Z,995.45
2023-04-15T00:52:58.488Z,995.45
2023-04-15T00:53:58.465Z,995.46
2023-04-15T00:54:58.480Z,995.47
2023-04-15T00:55:58.510Z,995.48
2023-04-15T00:56:58.461Z,995.48
2023-04-15T00:57:58.426Z,995.48
2023-04-15T00:58:58.639Z,995.48
2023-04-15T00:59:58.402Z,995.47
2023-04-15T01:00:58.408Z,995.48
2023-04-15T01:01:58.598Z,995.48
2023-04-15T01:02:58.518Z,995.48
2023-04-15T01:03:58.383Z,995.49
2023-04-15T01:04:58.357Z,995.49
2023-04-15T01:05:58.357Z,995.49
2023-04-15T01:06:58.333Z,995.49
2023-04-15T01:07:58.360Z,995.49
2023-04-15T01:08:58.449Z,995.49
2023-04-15T01:09:58.283Z,995.48
2023-04-15T01:10:58.297Z,995.48
2023-04-15T01:11:58.276Z,995.48
2023-04-15T01:12:58.280Z,995.48
2023-04-15T01:13:58.242Z,995.47
2023-04-15T01:14:58.248Z,995.46
2023-04-15T01:15:58.374Z,995.46
2023-04-15T01:16:58.220Z,995.46
2023-04-15T01:17:58.258Z,995.46
2023-04-15T01:18:58.278Z,995.47
2023-04-15T01:19:58.214Z,995.49
2023-04-15T01:20:58.205Z,995.50
2023-04-15T01:21:58.207Z,995.51
2023-04-15T01:22:58.173Z,995.53
2023-04-15T01:23:58.140Z,995.52
2023-04-15T01:24:58.163Z,995.53
2023-04-15T01:25:58.107Z,995.53
2023-04-15T01:26:58.138Z,995.53
2023-04-15T01:27:58.264Z,995.53
2023-04-15T01:28:58.293Z,995.53
2023-04-15T01:29:58.075Z,995.54
2023-04-15T06:00:56.498Z,995.97
2023-04-15T06:01:57.469Z,995.97
2023-04-15T06:02:57.580Z,995.98
2023-04-15T06:03:57.599Z,995.99
2023-04-15T06:04:57.489Z,995.98
2023-04-15T06:05:57.410Z,995.99
2023-04-15T06:06:57.668Z,995.98
2023-04-15T06:07:57.385Z,995.98
2023-04-15T06:08:57.378Z,995.99
2023-04-15T06:09:57.353Z,996.00
2023-04-15T06:10:57.381Z,996.01
2023-04-15T06:11:57.347Z,996.01
2023-04-15T06:12:57.330Z,996.01
2023-04-15T06:13:57.315Z,996.01
2023-04-15T06:14:59.938Z,996.02
2023-04-15T06:15:57.318Z,996.02
2023-04-15T06:16:57.314Z,996.02
2023-04-15T06:17:57.321Z,996.04
2023-04-15T06:18:57.291Z,996.05
2023-04-15T06:19:57.248Z,996.06
2023-04-15T06:20:57.263Z,996.07
2023-04-15T06:21:57.226Z,996.07
2023-04-15T06:22:57.243Z,996.08
2023-04-15T06:23:57.270Z,996.06
2023-04-15T06:24:57.194Z,996.08
2023-04-15T06:25:57.197Z,996.07
2023-04-15T06:26:57.167Z,996.08
2023-04-15T06:27:57.178Z,996.10
2023-04-15T06:28:57.161Z,996.10
2023-04-15T06:29:57.179Z,996.12
2023-04-15T06:30:57.138Z,996.13
2023-04-15T06:31:57.184Z,996.09
2023-04-15T06:32:57.178Z,996.13
2023-04-15T06:33:57.106Z,996.10
2023-04-15T06:34:57.107Z,996.12
2023-04-15T06:35:57.100Z,996.12
2023-04-15T06:36:57.079Z,996.14
2023-04-15T06:37:57.081Z,996.15
2023-04-15T06:38:57.074Z,996.14
2023-04-15T06:39:57.063Z,996.15
2023-04-15T06:40:57.063Z,996.17
2023-04-15T06:41:57.041Z,996.18
2023-04-15T06:42:57.048Z,996.20
2023-04-15T06:43:57.037Z,996.22
2023-04-15T06:44:56.990Z,996.23
2023-04-15T06:45:57.036Z,996.24
2023-04-15T06:46:56.981Z,996.26
2023-04-15T06:47:57.044Z,996.26
2023-04-15T06:48:56.941Z,996.26
2023-04-15T06:49:56.942Z,996.25
2023-04-15T06:50:56.933Z,996.26
2023-04-15T06:51:56.942Z,996.26
2023-04-15T06:52:56.932Z,996.28
2023-04-15T06:53:56.920Z,996.28
2023-04-15T06:54:56.871Z,996.28
2023-04-15T06:55:56.867Z,996.29
2023-04-15T06:56:56.844Z,996.30
2023-04-15T06:57:56.861Z,996.29
2023-04-15T06:58:56.850Z,996.29
2023-04-15T06:59:56.843Z,996.30
2023-04-15T07:00:56.833Z,996.31
2023-04-15T07:01:56.849Z,996.31
2023-04-15T07:02:56.812Z,996.32
2023-04-15T07:03:56.812Z,996.34
2023-04-15T07:04:56.796Z,996.35
2023-04-15T07:05:56.774Z,996.37
2023-04-15T07:06:56.746Z,996.38
2023-04-15T07:07:56.769Z,996.40
2023-04-15T07:08:56.751Z,996.40
2023-04-15T07:09:56.744Z,996.40
2023-04-15T07:10:56.764Z,996.39
2023-04-15T07:11:56.743Z,996.38
2023-04-15T07:12:56.706Z,996.37
2023-04-15T07:13:56.685Z,996.38
2023-04-15T07:14:56.693Z,996.37
2023-04-15T07:15:56.673Z,996.39
2023-04-15T07:16:56.786Z,996.39
2023-04-15T07:17:56.750Z,996.39
2023-04-15T07:18:56.628Z,996.40
2023-04-15T07:19:56.662Z,996.40
2023-04-15T07:20:56.612Z,996.38
2023-04-15T07:21:56.639Z,996.38
2023-04-15T07:22:56.627Z,996.38
2023-04-15T07:23:56.603Z,996.38
2023-04-15T07:24:56.578Z,996.37
2023-04-15T07:25:56.573Z,996.39
2023-04-15T07:26:57.955Z,996.39
2023-04-15T07:27:56.568Z,996.39
2023-04-15T07:28:56.557Z,996.41
2023-04-15T07:29:56.529Z,996.39
2023-04-15T07:30:56.531Z,996.40
2023-04-15T07:31:56.519Z,996.41
2023-04-15T07:32:56.519Z,996.39
2023-04-15T07:33:56.496Z,996.40
2023-04-15T07:34:56.502Z,996.41
2023-04-15T07:35:56.464Z,996.39
2023-04-15T07:36:56.434Z,996.40
2023-04-15T07:37:56.445Z,996.39
2023-04-15T07:38:56.419Z,996.41
2023-04-15T07:39:56.435Z,996.40
2023-04-15T07:40:56.435Z,996.41
2023-04-15T07:41:56.425Z,996.42
2023-04-15T07:42:56.369Z,996.41
2023-04-15T07:43:56.382Z,996.41
2023-04-15T07:44:56.357Z,996.41
2023-04-15T07:45:56.406Z,996.40
2023-04-15T07:46:56.358Z,996.42
2023-04-15T07:47:56.386Z,996.43
2023-04-15T07:48:56.315Z,996.44
2023-04-15T07:49:56.320Z,996.45
2023-04-15T07:50:56.284Z,996.46
2023-04-15T07:51:56.306Z,996.47
2023-04-15T07:52:56.299Z,996.46
2023-04-15T07:53:56.274Z,996.45
2023-04-15T07:54:56.272Z,996.45
2023-04-15T07:55:56.246Z,996.45
2023-04-15T07:56:56.228Z,996.45
2023-04-15T07:57:56.235Z,996.42
2023-04-15T07:58:56.241Z,996.43
2023-04-15T07:59:56.233Z,996.42
2023-04-15T08:00:56.174Z,996.41
2023-04-15T08:01:56.194Z,996.40
2023-04-15T08:02:56.408Z,996.41
2023-04-15T08:03:56.392Z,996.40
2023-04-15T08:04:56.226Z,996.40
2023-04-15T08:05:56.178Z,996.41
2023-04-15T08:06:56.139Z,996.42
2023-04-15T08:07:56.134Z,996.41
2023-04-15T08:08:56.106Z,996.42
2023-04-15T08:09:56.117Z,996.43
2023-04-15T08:10:56.094Z,996.43
2023-04-15T08:11:56.090Z,996.45
2023-04-15T08:12:56.084Z,996.45
2023-04-15T08:13:56.068Z,996.46
2023-04-15T08:14:56.034Z,996.44
2023-04-15T08:15:56.107Z,996.46
2023-04-15T08:16:56.020Z,996.46
2023-04-15T08:17:56.051Z,996.45
2023-04-15T08:18:55.994Z,996.43
2023-04-15T08:19:55.989Z,996.44
2023-04-15T08:20:55.967Z,996.45
2023-04-15T08:21:56.012Z,996.43
2023-04-15T08:22:55.966Z,996.44
2023-04-15T08:23:55.968Z,996.45
2023-04-15T08:24:55.978Z,996.45
2023-04-15T08:25:55.932Z,996.45
2023-04-15T08:26:55.906Z,996.44
2023-04-15T08:27:55.921Z,996.43
2023-04-15T08:28:55.896Z,996.43
2023-04-15T08:29:55.897Z,996.45
2023-04-15T08:30:55.879Z,996.43
2023-04-15T08:31:55.943Z,996.45
2023-04-15T08:32:55.961Z,996.44
2023-04-15T08:33:55.845Z,996.43
2023-04-15T08:34:55.823Z,996.45
2023-04-15T08:35:55.825Z,996.42
2023-04-15T08:36:55.806Z,996.43
2023-04-15T08:37:55.812Z,996.41
2023-04-15T08:38:55.814Z,996.41
2023-04-15T08:39:55.811Z,996.43
2023-04-15T08:40:55.755Z,996.42
2023-04-15T08:41:55.765Z,996.43
2023-04-15T08:42:55.731Z,996.42
2023-04-15T08:43:55.745Z,996.44
2023-04-15T08:44:55.752Z,996.42
2023-04-15T08:45:55.737Z,996.45
2023-04-15T08:46:55.705Z,996.42
2023-04-15T08:47:55.733Z,996.45
2023-04-15T08:48:55.743Z,996.42
2023-04-15T08:49:55.713Z,996.45
2023-04-15T08:50:55.647Z,996.44
2023-04-15T08:51:55.697Z,996.45
2023-04-15T08:52:55.624Z,996.45
2023-04-15T08:53:55.634Z,996.44
2023-04-15T08:54:55.599Z,996.44
2023-04-15T08:55:55.612Z,996.43
2023-04-15T08:56:55.629Z,996.45
2023-04-15T08:57:55.616Z,996.44
2023-04-15T08:58:55.643Z,996.40
2023-04-15T08:59:55.584Z,996.43
2023-04-15T09:00:55.557Z,996.43
2023-04-15T09:01:55.659Z,996.43
2023-04-15T09:02:55.600Z,996.47
2023-04-15T09:03:55.630Z,996.46
2023-04-15T09:04:55.518Z,996.47
2023-04-15T09:05:55.505Z,996.46
2023-04-15T09:06:55.491Z,996.47
2023-04-15T09:07:55.543Z,996.48
2023-04-15T09:08:55.505Z,996.46
2023-04-15T09:09:55.462Z,996.45
2023-04-15T09:10:55.434Z,996.46
2023-04-15T09:11:55.453Z,996.49
2023-04-15T09:12:55.419Z,996.48
2023-04-15T09:13:55.448Z,996.50
2023-04-15T09:14:55.395Z,996.49
2023-04-15T09:15:55.404Z,996.48
2023-04-15T09:16:55.480Z,996.50
2023-04-15T09:17:55.414Z,996.51
2023-04-15T09:18:55.353Z,996.53
2023-04-15T09:19:55.361Z,996.52
2023-04-15T09:20:55.349Z,996.52
2023-04-15T09:21:58.013Z,996.55
2023-04-15T09:22:55.339Z,996.56
2023-04-15T09:23:55.302Z,996.57
2023-04-15T09:24:55.344Z,996.56
2023-04-15T09:25:55.420Z,996.61
2023-04-15T09:26:55.273Z,996.59
2023-04-15T09:27:55.250Z,996.62
2023-04-15T09:28:55.245Z,996.61
2023-04-15T09:29:55.278Z,996.60
2023-04-15T09:30:55.250Z,996.62
2023-04-15T09:31:55.262Z,996.67
2023-04-15T09:32:55.246Z,996.67
2023-04-15T09:33:55.215Z,996.70
2023-04-15T09:34:55.174Z,996.69
2023-04-15T09:35:55.185Z,996.69
2023-04-15T09:36:55.167Z,996.69
2023-04-15T09:37:55.182Z,996.75
2023-04-15T09:38:55.148Z,996.71
2023-04-15T09:39:55.141Z,996.75
2023-04-15T09:40:55.109Z,996.77
2023-04-15T09:41:55.143Z,996.74
2023-04-15T09:42:55.079Z,996.76
2023-04-15T09:43:55.101Z,996.77
2023-04-15T09:44:55.102Z,996.77
2023-04-15T09:45:55.149Z,996.80
2023-04-15T09:46:55.048Z,996.81
2023-04-15T09:47:56.918Z,996.83
2023-04-15T09:48:55.054Z,996.82
2023-04-15T09:49:55.112Z,996.88
2023-04-15T09:50:55.037Z,996.83
2023-04-15T09:52:04.399Z,996.83
2023-04-15T09:52:54.994Z,996.84
2023-04-15T09:53:55.007Z,996.84
2023-04-15T09:54:54.978Z,996.86
2023-04-15T09:55:54.986Z,996.89
2023-04-15T09:56:54.932Z,996.85
2023-04-15T09:57:54.944Z,996.89
2023-04-15T09:58:54.918Z,996.89
2023-04-15T09:59:54.960Z,996.91
2023-04-15T10:00:54.899Z,996.93
2023-04-15T10:01:55.084Z,996.93
2023-04-15T10:02:54.994Z,996.93
2023-04-15T10:03:55.067Z,996.91
2023-04-15T10:04:54.890Z,996.95
2023-04-15T10:05:54.889Z,996.97
2023-04-15T10:06:54.833Z,996.95
2023-04-15T10:07:54.850Z,996.98
2023-04-15T10:08:54.807Z,997.00
2023-04-15T10:09:54.852Z,997.03
2023-04-15T10:10:54.808Z,997.02
2023-04-15T10:11:54.837Z,997.05
2023-04-15T10:12:54.777Z,997.02
2023-04-15T10:13:54.787Z,997.06
2023-04-15T10:14:54.750Z,997.09
2023-04-15T10:15:54.781Z,997.13
2023-04-15T10:16:54.746Z,997.13
2023-04-15T10:17:54.826Z,997.13
2023-04-15T10:18:54.722Z,997.14
2023-04-15T10:19:54.739Z,997.19
2023-04-15T10:20:54.683Z,997.14
2023-04-15T10:21:54.685Z,997.19
2023-04-15T10:22:54.660Z,997.18
2023-04-15T10:23:54.701Z,997.21
2023-04-15T10:24:54.668Z,997.18
2023-04-15T10:25:54.682Z,997.21
2023-04-15T10:26:54.622Z,997.20
2023-04-15T10:27:54.618Z,997.21
2023-04-15T10:28:54.718Z,997.23
2023-04-15T10:29:54.655Z,997.22
2023-04-15T10:30:54.609Z,997.23
2023-04-15T10:31:54.573Z,997.24
2023-04-15T10:32:54.582Z,997.24
2023-04-15T10:33:54.559Z,997.25
2023-04-15T10:34:54.818Z,997.28
2023-04-15T10:35:54.607Z,997.29
2023-04-15T10:36:54.519Z,997.29
2023-04-15T10:37:54.515Z,997.31
2023-04-15T10:38:54.488Z,997.33
2023-04-15T10:39:54.485Z,997.33
2023-04-15T10:40:54.500Z,997.35
2023-04-15T10:41:54.497Z,997.37
2023-04-15T10:42:54.461Z,997.39
2023-04-15T10:43:54.449Z,997.41
2023-04-15T10:44:54.440Z,997.43
2023-04-15T10:45:54.433Z,997.42
2023-04-15T10:46:54.485Z,997.47
2023-04-15T10:47:54.478Z,997.44
2023-04-15T10:48:54.407Z,997.47
2023-04-15T10:49:54.366Z,997.44
2023-04-15T10:50:54.380Z,997.43
2023-04-15T10:51:54.374Z,997.46
2023-04-15T10:52:54.369Z,997.45
2023-04-15T10:53:54.415Z,997.47
2023-04-15T10:54:54.333Z,997.43
2023-04-15T10:55:54.301Z,997.42
2023-04-15T10:56:54.353Z,997.42
2023-04-15T10:57:54.314Z,997.44
2023-04-15T10:58:54.315Z,997.45
2023-04-15T10:59:54.298Z,997.43
2023-04-15T11:00:54.276Z,997.44
2023-04-15T11:01:54.461Z,997.45
2023-04-15T11:02:54.402Z,997.43
2023-04-15T11:03:54.403Z,997.44
2023-04-15T11:04:54.273Z,997.45
2023-04-15T11:05:54.655Z,997.45
2023-04-15T11:06:54.240Z,997.45
2023-04-15T11:07:54.188Z,997.42
2023-04-15T11:08:54.216Z,997.43
2023-04-15T11:09:54.185Z,997.43
2023-04-15T11:10:54.256Z,997.45
2023-04-15T11:11:54.201Z,997.44
2023-04-15T11:12:54.161Z,997.43
2023-04-15T11:13:54.130Z,997.43
2023-04-15T11:14:54.122Z,997.43
2023-04-15T11:15:54.114Z,997.45
2023-04-15T11:16:54.092Z,997.44
2023-04-15T11:17:54.394Z,997.45
2023-04-15T11:18:54.077Z,997.46
2023-04-15T11:19:54.073Z,997.46
2023-04-15T11:20:54.070Z,997.45
2023-04-15T11:21:54.075Z,997.47
2023-04-15T11:23:14.640Z,997.46
2023-04-15T11:23:54.044Z,997.47
2023-04-15T11:24:54.036Z,997.49
2023-04-15T11:25:53.986Z,997.51
2023-04-15T11:26:53.987Z,997.53
2023-04-15T11:27:53.978Z,997.54
2023-04-15T11:28:54.001Z,997.56
2023-04-15T11:29:53.973Z,997.58
2023-04-15T11:30:53.963Z,997.58
2023-04-15T11:31:53.967Z,997.59
2023-04-15T11:32:53.985Z,997.63
2023-04-15T11:33:53.916Z,997.65
2023-04-15T11:34:53.911Z,997.63
2023-04-15T11:35:53.934Z,997.64
2023-04-15T11:36:53.889Z,997.71
2023-04-15T11:37:53.850Z,997.73
2023-04-15T11:38:53.868Z,997.73
2023-04-15T11:39:53.848Z,997.74
2023-04-15T11:40:53.850Z,997.74
2023-04-15T11:41:53.877Z,997.78
2023-04-15T11:42:53.849Z,997.78
2023-04-15T11:43:53.824Z,997.80
2023-04-15T11:44:53.827Z,997.81
2023-04-15T11:45:53.909Z,997.84
2023-04-15T11:46:53.791Z,997.87
2023-04-15T11:47:53.822Z,997.87
2023-04-15T11:48:53.760Z,997.91
2023-04-15T11:49:53.736Z,997.89
2023-04-15T11:50:53.735Z,997.92
2023-04-15T11:51:53.741Z,997.92
2023-04-15T11:52:53.718Z,997.97
2023-04-15T11:53:53.747Z,997.95
2023-04-15T11:54:53.705Z,997.95
2023-04-15T11:55:53.667Z,997.94
2023-04-15T11:56:53.681Z,997.94
2023-04-15T11:57:53.647Z,997.95
2023-04-15T11:58:53.657Z,997.97
2023-04-15T11:59:53.657Z,997.97
2023-04-15T12:00:53.629Z,997.98
2023-04-15T12:01:53.659Z,998.02
2023-04-15T12:02:53.671Z,998.01
2023-04-15T12:03:53.699Z,998.02
2023-04-15T12:04:53.755Z,998.06
2023-04-15T12:05:53.589Z,998.08
2023-04-15T12:06:53.571Z,998.09
2023-04-15T12:07:53.541Z,998.15
2023-04-15T12:08:53.555Z,998.15
2023-04-15T12:09:53.543Z,998.18
2023-04-15T12:10:53.521Z,998.20
2023-04-15T12:11:53.518Z,998.20
2023-04-15T12:12:53.507Z,998.21
2023-04-15T12:13:53.481Z,998.24
2023-04-15T12:14:53.479Z,998.25
2023-04-15T12:15:53.475Z,998.26
2023-04-15T12:16:53.455Z,998.25
2023-04-15T12:17:53.514Z,998.28
2023-04-15T12:18:53.446Z,998.29
2023-04-15T12:19:53.415Z,998.31
2023-04-15T12:20:53.414Z,998.32
2023-04-15T12:21:53.389Z,998.34
2023-04-15T12:22:53.408Z,998.35
2023-04-15T12:23:53.398Z,998.36
2023-04-15T12:24:53.403Z,998.38
2023-04-15T12:25:53.348Z,998.38
2023-04-15T12:26:53.392Z,998.43
2023-04-15T12:27:53.343Z,998.44
2023-04-15T12:28:53.333Z,998.43
2023-04-15T12:29:53.325Z,998.44
2023-04-15T12:30:53.354Z,998.47
2023-04-15T12:31:53.289Z,998.47
2023-04-15T12:32:53.332Z,998.47
2023-04-15T12:33:53.281Z,998.48
2023-04-15T12:34:53.293Z,998.48
2023-04-15T12:35:53.269Z,998.47
2023-04-15T12:36:53.256Z,998.47
2023-04-15T12:37:53.222Z,998.51
2023-04-15T12:38:53.235Z,998.52
2023-04-15T12:39:53.220Z,998.51
2023-04-15T12:40:53.230Z,998.53
2023-04-15T12:41:53.252Z,998.56
2023-04-15T12:42:53.196Z,998.59
2023-04-15T12:43:53.155Z,998.58
2023-04-15T12:44:53.177Z,998.60
2023-04-15T12:45:53.134Z,998.61
2023-04-15T12:46:53.262Z,998.68
2023-04-15T12:47:53.179Z,998.64
2023-04-15T12:48:53.132Z,998.67
2023-04-15T12:49:53.086Z,998.75
2023-04-15T12:50:53.100Z,998.75
2023-04-15T12:51:53.089Z,998.73
2023-04-15T12:52:53.102Z,998.77
2023-04-15T12:53:53.085Z,998.73
2023-04-15T12:54:53.100Z,998.78
2023-04-15T12:55:53.049Z,998.82
2023-04-15T12:56:53.054Z,998.79
2023-04-15T12:57:53.020Z,998.90
2023-04-15T12:58:53.049Z,998.86
2023-04-15T12:59:53.045Z,998.86
2023-04-15T13:00:53.011Z,998.88
2023-04-15T13:01:53.065Z,998.90
2023-04-15T13:02:53.003Z,998.94
2023-04-15T13:03:53.050Z,998.96
2023-04-15T13:04:52.991Z,998.93
2023-04-15T13:05:52.965Z,998.96
2023-04-15T13:06:52.941Z,998.93
2023-04-15T13:07:52.903Z,998.94
2023-04-15T13:08:58.458Z,998.95
2023-04-15T13:09:52.906Z,998.96
2023-04-15T13:10:52.890Z,998.94
2023-04-15T13:11:53.015Z,998.99
2023-04-15T13:12:52.858Z,998.98
2023-04-15T13:13:52.853Z,999.02
2023-04-15T13:14:52.873Z,998.99
2023-04-15T13:15:52.892Z,999.00
2023-04-15T13:16:52.812Z,999.00
2023-04-15T13:17:52.917Z,999.01
2023-04-15T13:18:52.797Z,999.02
2023-04-15T13:19:52.790Z,999.03
2023-04-15T13:20:52.782Z,999.02
2023-04-15T13:21:52.754Z,999.02
2023-04-15T13:22:52.752Z,999.02
2023-04-15T13:23:52.769Z,999.04
2023-04-15T13:24:52.744Z,999.06
2023-04-15T13:25:52.713Z,999.01
2023-04-15T13:26:52.732Z,999.03
2023-04-15T13:27:52.687Z,999.04
2023-04-15T13:28:52.704Z,999.04
2023-04-15T13:29:52.705Z,999.08
2023-04-15T13:30:52.682Z,999.07
2023-04-15T13:31:52.684Z,999.04
2023-04-15T13:32:52.744Z,999.06
2023-04-15T13:33:52.665Z,999.06
2023-04-15T13:34:52.631Z,999.08
2023-04-15T13:35:52.620Z,999.08
2023-04-15T13:36:52.630Z,999.07
2023-04-15T13:37:52.587Z,999.08
2023-04-15T13:38:52.616Z,999.13
2023-04-15T13:39:52.567Z,999.11
2023-04-15T13:40:52.574Z,999.09
2023-04-15T13:41:52.552Z,999.12
2023-04-15T13:42:52.560Z,999.14
2023-04-15T13:43:52.552Z,999.12
2023-04-15T13:44:52.539Z,999.12
2023-04-15T13:45:52.602Z,999.15
2023-04-15T13:46:52.500Z,999.15
2023-04-15T13:47:52.614Z,999.14
2023-04-15T13:48:52.504Z,999.15
2023-04-15T13:49:52.456Z,999.16
2023-04-15T13:50:52.466Z,999.16
2023-04-15T13:51:52.458Z,999.17
2023-04-15T13:52:52.445Z,999.16
2023-04-15T13:53:52.433Z,999.16
2023-04-15T13:55:06.242Z,999.14
2023-04-15T13:55:52.401Z,999.17
2023-04-15T13:56:52.426Z,999.14
2023-04-15T13:57:52.379Z,999.15
2023-04-15T13:58:52.376Z,999.13
2023-04-15T13:59:52.346Z,999.16
2023-04-15T14:00:52.401Z,999.16
2023-04-15T14:01:52.461Z,999.19
2023-04-15T14:02:52.530Z,999.17
2023-04-15T14:03:52.427Z,999.18
2023-04-15T14:04:52.301Z,999.19
2023-04-15T14:05:52.285Z,999.18
2023-04-15T14:06:52.295Z,999.20
2023-04-15T14:07:52.280Z,999.20
2023-04-15T14:08:53.060Z,999.22
2023-04-15T14:09:52.236Z,999.21
2023-04-15T14:10:52.252Z,999.21
2023-04-15T14:11:52.218Z,999.24
2023-04-15T14:12:52.223Z,999.23
2023-04-15T14:13:52.206Z,999.26
2023-04-15T14:14:52.217Z,999.27
2023-04-15T14:15:52.168Z,999.29
2023-04-15T14:16:52.468Z,999.30
2023-04-15T14:17:52.239Z,999.32
2023-04-15T14:18:52.188Z,999.34
2023-04-15T14:19:52.174Z,999.37
2023-04-15T14:20:52.172Z,999.35
2023-04-15T14:21:52.109Z,999.37
2023-04-15T14:22:52.115Z,999.38
2023-04-15T14:23:52.087Z,999.39
2023-04-15T14:24:52.100Z,999.41
2023-04-15T14:25:52.124Z,999.45
2023-04-15T14:26:52.144Z,999.45
2023-04-15T14:27:52.055Z,999.48
2023-04-15T14:28:52.053Z,999.52
2023-04-15T14:29:52.022Z,999.52
2023-04-15T14:30:52.059Z,999.49
2023-04-15T14:32:06.206Z,999.52
2023-04-15T14:32:52.297Z,999.55
2023-04-15T14:33:52.005Z,999.54
2023-04-15T14:34:51.991Z,999.59
2023-04-15T14:35:51.962Z,999.57
2023-04-15T14:36:51.956Z,999.58
2023-04-15T14:37:51.938Z,999.60
2023-04-15T14:38:51.998Z,999.57
2023-04-15T14:39:51.915Z,999.59
2023-04-15T14:40:51.936Z,999.60
2023-04-15T14:41:51.898Z,999.61
2023-04-15T14:42:51.901Z,999.65
2023-04-15T14:43:51.875Z,999.66
2023-04-15T14:44:51.917Z,999.67
2023-04-15T14:45:51.887Z,999.68
2023-04-15T14:46:51.897Z,999.68
2023-04-15T14:47:51.854Z,999.70
2023-04-15T14:48:51.849Z,999.69
2023-04-15T14:49:51.809Z,999.72
2023-04-15T14:50:51.853Z,999.74
2023-04-15T14:51:51.805Z,999.75
2023-04-15T14:52:51.813Z,999.76
2023-04-15T14:53:51.777Z,999.78
2023-04-15T14:54:51.812Z,999.80
2023-04-15T14:55:51.778Z,999.81
2023-04-15T14:56:51.775Z,999.83
2023-04-15T14:57:51.745Z,999.84
2023-04-15T14:58:51.737Z,999.84
2023-04-15T14:59:51.732Z,999.86
2023-04-15T15:00:51.705Z,999.89
2023-04-15T15:01:51.803Z,999.92
2023-04-15T15:02:51.818Z,999.91
2023-04-15T15:03:51.827Z,999.94
2023-04-15T15:04:51.750Z,999.91
2023-04-15T15:05:51.856Z,999.95
2023-04-15T15:06:51.660Z,999.98
2023-04-15T15:07:51.703Z,999.96
2023-04-15T15:08:51.630Z,1000.01
2023-04-15T15:09:51.613Z,1000.00
2023-04-15T15:10:51.596Z,1000.03
2023-04-15T15:11:51.627Z,1000.06
2023-04-15T15:12:51.570Z,1000.03
2023-04-15T15:13:51.621Z,1000.06
2023-04-15T15:14:51.542Z,1000.10
2023-04-15T15:15:51.609Z,1000.08
2023-04-15T15:16:51.538Z,1000.07
2023-04-15T15:17:51.609Z,1000.10
2023-04-15T15:18:51.510Z,1000.11
2023-04-15T15:19:51.559Z,1000.09
2023-04-15T15:20:51.504Z,1000.13
2023-04-15T15:21:51.536Z,1000.11
2023-04-15T15:22:51.462Z,1000.10
2023-04-15T15:23:51.476Z,1000.12
2023-04-15T15:24:51.486Z,1000.12
2023-04-15T15:25:51.518Z,1000.06
2023-04-15T15:26:51.448Z,1000.19
2023-04-15T15:27:51.438Z,1000.14
2023-04-15T15:28:51.414Z,1000.09
2023-04-15T15:29:51.435Z,1000.14
2023-04-15T15:30:51.399Z,1000.15
2023-04-15T15:31:51.462Z,1000.12
2023-04-15T15:32:51.451Z,1000.14
2023-04-15T15:33:51.373Z,1000.15
2023-04-15T15:34:51.353Z,1000.17
2023-04-15T15:35:51.345Z,1000.17
2023-04-15T15:36:51.355Z,1000.17
2023-04-15T15:37:51.374Z,1000.19
2023-04-15T15:38:51.305Z,1000.19
2023-04-15T15:39:51.321Z,1000.21
2023-04-15T15:40:51.295Z,1000.23
2023-04-15T15:41:51.312Z,1000.24
2023-04-15T15:42:51.252Z,1000.23
2023-04-15T15:43:51.317Z,1000.24
2023-04-15T15:44:51.271Z,1000.26
2023-04-15T15:45:51.251Z,1000.28
2023-04-15T15:46:51.317Z,1000.29
2023-04-15T15:47:51.294Z,1000.27
2023-04-15T15:48:51.196Z,1000.28
2023-04-15T15:49:51.243Z,1000.31
2023-04-15T15:50:51.207Z,1000.35
2023-04-15T15:51:51.201Z,1000.32
2023-04-15T15:52:51.177Z,1000.35
2023-04-15T15:53:51.184Z,1000.36
2023-04-15T15:54:51.131Z,1000.37
2023-04-15T15:55:53.624Z,1000.41
2023-04-15T15:56:51.172Z,1000.39
2023-04-15T15:57:51.169Z,1000.42
2023-04-15T15:58:51.102Z,1000.43
2023-04-15T15:59:52.803Z,1000.43
2023-04-15T16:00:51.122Z,1000.44
2023-04-15T16:01:51.163Z,1000.45
2023-04-15T16:03:06.103Z,1000.45
2023-04-15T16:03:51.349Z,1000.46
2023-04-15T16:04:51.077Z,1000.46
2023-04-15T16:05:51.039Z,1000.50
2023-04-15T16:06:51.002Z,1000.51
2023-04-15T16:07:51.004Z,1000.50
2023-04-15T16:08:51.050Z,1000.51
2023-04-15T16:09:51.013Z,1000.50
2023-04-15T16:10:50.989Z,1000.51
2023-04-15T16:11:50.980Z,1000.53
2023-04-15T16:12:50.950Z,1000.54
2023-04-15T16:13:50.942Z,1000.54
2023-04-15T16:14:50.972Z,1000.54
2023-04-15T16:15:50.941Z,1000.54
2023-04-15T16:16:51.034Z,1000.58
2023-04-15T16:17:50.953Z,1000.56
2023-04-15T16:18:50.880Z,1000.55
2023-04-15T16:19:57.897Z,1000.58
2023-04-15T16:20:50.885Z,1000.59
2023-04-15T16:21:50.898Z,1000.60
2023-04-15T16:22:50.845Z,1000.63
2023-04-15T16:23:50.844Z,1000.64
2023-04-15T16:24:50.840Z,1000.66
2023-04-15T16:25:50.825Z,1000.69
2023-04-15T16:26:50.867Z,1000.68
2023-04-15T16:28:03.111Z,1000.70
2023-04-15T16:28:50.785Z,1000.72
2023-04-15T16:29:50.789Z,1000.72
2023-04-15T16:30:50.751Z,1000.74
2023-04-15T16:31:50.815Z,1000.74
2023-04-15T16:32:50.768Z,1000.75
2023-04-15T16:33:50.760Z,1000.75
2023-04-15T16:34:50.726Z,1000.76
2023-04-15T16:35:50.739Z,1000.76
2023-04-15T16:36:50.776Z,1000.80
2023-04-15T16:37:50.711Z,1000.82
2023-04-15T16:38:50.707Z,1000.84
2023-04-15T16:39:50.685Z,1000.84
2023-04-15T16:40:50.663Z,1000.81
2023-04-15T16:41:50.638Z,1000.85
2023-04-15T16:42:50.651Z,1000.85
2023-04-15T16:43:50.646Z,1000.88
2023-04-15T16:44:50.638Z,1000.90
2023-04-15T16:45:50.807Z,1000.90
2023-04-15T16:46:50.605Z,1000.90
2023-04-15T16:47:50.634Z,1000.91
2023-04-15T16:48:50.577Z,1000.95
2023-04-15T16:49:50.587Z,1000.94
2023-04-15T16:50:50.578Z,1000.95
2023-04-15T16:51:50.569Z,1000.95
2023-04-15T16:52:50.540Z,1000.97
2023-04-15T16:53:50.546Z,1000.99
2023-04-15T16:54:50.488Z,1000.98
2023-04-15T16:55:50.504Z,1001.00